Time;durP1;ratioP1;P1;durP2;ratioP2;P2;SDS_P1;SDS_P2;PMS_P1;PMS_P2;Temp;Humidity;BMP_temperature;BMP_pressure;BME280_temperature;BME280_humidity;BME280_pressure;Samples;Min_cycle;Max_cycle;Signal;HPM_P1;HPM_P2
2022/09/22 00:01:32;;;;;;;8.65;7.72;;;;;;;9.27;100.00;100342.38;5089791;28;20020;-79
2022/09/22 00:04:00;;;;;;;10.20;7.10;;;;;;;9.27;100.00;100344.97;5090603;28;20496;-79
2022/09/22 00:06:29;;;;;;;9.10;7.40;;;;;;;9.24;100.00;100344.16;5051212;28;1140413;-79
2022/09/22 00:08:59;;;;;;;11.20;8.02;;;;;;;9.18;100.00;100336.53;5091741;28;20044;-79
2022/09/22 00:11:27;;;;;;;10.48;7.20;;;;;;;9.19;100.00;100345.22;5090630;28;20020;-79
2022/09/22 00:13:59;;;;;;;11.77;7.57;;;;;;;9.16;100.00;100340.94;5091598;28;20346;-79
2022/09/22 00:16:31;;;;;;;9.52;7.78;;;;;;;9.13;100.00;100341.03;5091733;28;20063;-79
2022/09/22 00:18:57;;;;;;;9.65;7.90;;;;;;;9.11;100.00;100342.00;5091503;28;20035;-79
2022/09/22 00:21:26;;;;;;;11.02;8.85;;;;;;;9.12;100.00;100339.34;5090726;28;20116;-79
2022/09/22 00:23:52;;;;;;;14.93;8.57;;;;;;;9.20;100.00;100342.56;5091570;28;20024;-79
2022/09/22 00:26:20;;;;;;;10.70;8.57;;;;;;;9.24;100.00;100333.78;5091706;28;20024;-79
2022/09/22 00:28:47;;;;;;;10.93;8.50;;;;;;;9.19;100.00;100319.22;5091437;28;20016;-79
2022/09/22 00:31:17;;;;;;;10.27;8.45;;;;;;;9.23;100.00;100333.84;5091574;28;20020;-79
2022/09/22 00:33:45;;;;;;;14.82;8.90;;;;;;;9.21;100.00;100336.47;5091305;28;20114;-79
2022/09/22 00:36:11;;;;;;;13.45;8.57;;;;;;;9.11;100.00;100319.44;5091853;28;20091;-79
2022/09/22 00:38:38;;;;;;;13.63;8.80;;;;;;;9.11;100.00;100331.59;5091403;28;20177;-79
2022/09/22 00:41:05;;;;;;;9.32;8.23;;;;;;;9.08;100.00;100332.53;5091627;28;20024;-79
2022/09/22 00:43:35;;;;;;;11.10;8.95;;;;;;;9.05;100.00;100340.41;5091579;28;20106;-79
2022/09/22 00:46:24;;;;;;;12.05;8.77;;;;;;;9.06;100.00;100349.03;5091244;28;20077;-79
2022/09/22 00:49:02;;;;;;;12.05;9.35;;;;;;;9.04;100.00;100343.06;5091464;28;20028;-79
2022/09/22 00:51:31;;;;;;;12.63;8.68;;;;;;;9.04;100.00;100341.31;5091513;28;20357;-79
2022/09/22 00:53:59;;;;;;;13.82;9.32;;;;;;;9.00;100.00;100340.53;5093009;28;20031;-79
2022/09/22 00:56:33;;;;;;;11.30;8.75;;;;;;;9.01;100.00;100343.97;5094936;28;20031;-79
2022/09/22 00:59:07;;;;;;;10.45;8.35;;;;;;;8.97;100.00;100347.56;5094938;28;20023;-79
2022/09/22 01:01:35;;;;;;;12.05;9.18;;;;;;;8.88;100.00;100335.69;5095024;28;20020;-79
2022/09/22 01:04:02;;;;;;;12.68;8.43;;;;;;;8.89;100.00;100337.41;5094678;28;20054;-79
2022/09/22 01:06:27;;;;;;;13.70;9.45;;;;;;;8.84;100.00;100328.88;5094726;28;20123;-79
2022/09/22 01:08:54;;;;;;;14.77;9.07;;;;;;;8.87;100.00;100333.16;5094431;28;20443;-79
2022/09/22 01:11:20;;;;;;;11.65;8.68;;;;;;;8.88;100.00;100334.84;5094716;28;20110;-79
2022/09/22 01:14:38;;;;;;;13.98;10.05;;;;;;;8.91;100.00;100347.75;5094592;28;20099;-79
2022/09/22 01:17:31;;;;;;;12.63;9.65;;;;;;;8.81;100.00;100325.56;5011991;28;20073;-79
2022/09/22 01:20:02;;;;;;;10.63;8.38;;;;;;;8.86;100.00;100350.50;5012127;28;20034;-79
2022/09/22 01:22:45;;;;;;;12.13;9.50;;;;;;;8.84;100.00;100351.41;5012172;28;20144;-79
2022/09/22 01:25:32;;;;;;;11.82;9.40;;;;;;;8.81;100.00;100352.38;5012292;28;20021;-79
2022/09/22 01:28:34;;;;;;;12.73;9.75;;;;;;;8.79;100.00;100350.69;5011821;28;20033;-79
2022/09/22 01:31:08;;;;;;;16.17;10.02;;;;;;;8.75;100.00;100348.19;5011787;28;20072;-79
2022/09/22 01:33:40;;;;;;;10.50;9.38;;;;;;;8.71;100.00;100348.31;5011623;28;20126;-79
2022/09/22 01:36:28;;;;;;;13.02;9.73;;;;;;;8.69;100.00;100350.13;5011768;28;20030;-78
2022/09/22 01:39:17;;;;;;;13.18;9.60;;;;;;;8.65;100.00;100343.31;5011695;28;20096;-79
2022/09/22 01:41:52;;;;;;;15.07;10.13;;;;;;;8.61;100.00;100344.28;4915015;29;20498;-79
2022/09/22 01:44:30;;;;;;;11.90;9.68;;;;;;;8.56;100.00;100340.97;4915535;29;20044;-79
2022/09/22 01:47:00;;;;;;;15.55;10.88;;;;;;;8.53;100.00;100338.44;4914927;29;20191;-79
2022/09/22 01:49:28;;;;;;;12.38;10.45;;;;;;;8.46;100.00;100320.41;4915342;29;20393;-79
2022/09/22 01:51:59;;;;;;;15.57;10.98;;;;;;;8.41;100.00;100318.84;4915295;29;20036;-79
2022/09/22 01:54:45;;;;;;;13.07;10.43;;;;;;;8.43;100.00;100325.72;4990009;28;20041;-79
2022/09/22 01:57:20;;;;;;;14.32;10.18;;;;;;;8.35;100.00;100314.66;5011555;28;20596;-79
2022/09/22 01:59:51;;;;;;;12.85;10.82;;;;;;;8.34;100.00;100309.47;5011300;28;20065;-79
2022/09/22 02:02:26;;;;;;;17.20;10.77;;;;;;;8.31;100.00;100320.81;5011613;28;20026;-79
2022/09/22 02:04:55;;;;;;;13.40;10.38;;;;;;;8.23;100.00;100312.38;5010202;28;20022;-79
2022/09/22 02:07:29;;;;;;;14.50;11.95;;;;;;;8.17;100.00;100300.41;5011045;28;20048;-79
2022/09/22 02:09:59;;;;;;;14.65;10.70;;;;;;;8.23;100.00;100318.41;5010981;28;20022;-79
2022/09/22 02:12:24;;;;;;;13.35;11.10;;;;;;;8.15;100.00;100306.53;5011110;28;20076;-79
2022/09/22 02:14:49;;;;;;;13.30;10.70;;;;;;;8.15;100.00;100303.94;5010962;28;20018;-79
2022/09/22 02:17:15;;;;;;;14.45;10.90;;;;;;;8.04;100.00;100298.16;5011145;28;20025;-79
2022/09/22 02:19:41;;;;;;;13.93;11.27;;;;;;;8.04;100.00;100299.00;5083624;28;20040;-79
2022/09/22 02:22:10;;;;;;;16.30;10.85;;;;;;;8.04;100.00;100308.53;5093326;28;20034;-79
2022/09/22 02:24:41;;;;;;;13.57;11.30;;;;;;;7.96;100.00;100307.03;5093579;28;20104;-79
2022/09/22 02:27:25;;;;;;;17.95;10.77;;;;;;;7.89;100.00;100297.69;5093116;28;20077;-79
2022/09/22 02:30:09;;;;;;;14.82;11.38;;;;;;;7.85;100.00;100308.19;5092999;28;20526;-79
2022/09/22 02:32:38;;;;;;;13.50;10.40;;;;;;;7.87;100.00;100316.75;5093106;28;20346;-79
2022/09/22 02:35:06;;;;;;;12.85;11.45;;;;;;;7.75;100.00;100311.00;5093071;28;20025;-79
2022/09/22 02:38:15;;;;;;;15.73;11.48;;;;;;;7.75;100.00;100315.31;5093312;28;20023;-79
2022/09/22 02:40:47;;;;;;;13.45;11.27;;;;;;;7.71;100.00;100316.28;5092527;28;20111;-79
2022/09/22 02:43:26;;;;;;;12.90;10.45;;;;;;;7.65;100.00;100311.25;5091731;28;20020;-79
2022/09/22 02:46:37;;;;;;;17.08;11.57;;;;;;;7.64;100.00;100317.31;5092829;28;20352;-79
2022/09/22 02:49:09;;;;;;;12.45;11.02;;;;;;;7.60;100.00;100316.53;5092597;28;20118;-79
2022/09/22 02:51:35;;;;;;;14.90;12.38;;;;;;;7.53;100.00;100304.59;5092923;28;20012;-79
2022/09/22 02:54:01;;;;;;;15.98;12.90;;;;;;;7.56;100.00;100301.09;5092547;28;20030;-79
2022/09/22 02:56:27;;;;;;;16.40;12.68;;;;;;;7.58;100.00;100305.34;5092764;28;20085;-79
2022/09/22 02:58:52;;;;;;;18.35;13.27;;;;;;;7.60;100.00;100303.59;5092746;28;20186;-79
2022/09/22 03:01:17;;;;;;;16.17;13.75;;;;;;;7.65;100.00;100319.88;5092748;28;20111;-79
2022/09/22 03:03:43;;;;;;;16.85;12.30;;;;;;;7.61;100.00;100310.47;5092715;28;20105;-79
2022/09/22 03:06:08;;;;;;;17.20;13.60;;;;;;;7.63;100.00;100308.69;5092543;28;20039;-79
2022/09/22 03:08:33;;;;;;;17.98;12.65;;;;;;;7.67;100.00;100309.47;5092689;28;20016;-79
2022/09/22 03:10:59;;;;;;;18.65;13.38;;;;;;;7.60;100.00;100310.50;5092501;28;20024;-79
2022/09/22 03:13:24;;;;;;;15.40;12.90;;;;;;;7.59;100.00;100307.06;5092550;28;20020;-78
2022/09/22 03:15:49;;;;;;;14.50;11.95;;;;;;;7.64;100.00;100319.91;5092010;28;20023;-79
2022/09/22 03:18:15;;;;;;;13.57;11.18;;;;;;;7.58;100.00;100313.13;5092688;28;20020;-79
2022/09/22 03:20:40;;;;;;;19.70;12.68;;;;;;;7.58;100.00;100307.94;5092571;28;20027;-79
2022/09/22 03:23:06;;;;;;;16.92;12.98;;;;;;;7.66;100.00;100320.72;5092424;28;20031;-78
2022/09/22 03:25:31;;;;;;;12.75;10.88;;;;;;;7.60;100.00;100303.59;5092539;28;20346;-78
2022/09/22 03:27:57;;;;;;;16.98;12.43;;;;;;;7.63;100.00;100321.66;5092137;28;20361;-78
2022/09/22 03:30:22;;;;;;;15.73;11.88;;;;;;;7.58;100.00;100312.28;5092238;28;20358;-78
2022/09/22 03:32:47;;;;;;;14.45;10.45;;;;;;;7.52;100.00;100309.84;5091965;28;20107;-78
2022/09/22 03:35:13;;;;;;;14.57;11.27;;;;;;;7.50;100.00;100315.06;5092311;28;20035;-78
2022/09/22 03:37:38;;;;;;;12.82;11.43;;;;;;;7.46;100.00;100313.44;5092256;28;20020;-79
2022/09/22 03:40:04;;;;;;;16.23;11.30;;;;;;;7.42;100.00;100323.00;5092053;28;20020;-78
2022/09/22 03:42:31;;;;;;;13.73;11.55;;;;;;;7.41;100.00;100325.63;5092185;28;20020;-78
2022/09/22 03:44:57;;;;;;;15.02;11.95;;;;;;;7.36;100.00;100309.34;5091784;28;20031;-79
2022/09/22 03:47:23;;;;;;;14.60;11.50;;;;;;;7.35;100.00;100318.84;5092023;28;20032;-78
2022/09/22 03:49:48;;;;;;;17.02;11.90;;;;;;;7.35;100.00;100329.22;5092145;28;20035;-78
2022/09/22 03:52:13;;;;;;;13.90;12.10;;;;;;;7.30;100.00;100320.69;5092214;28;20476;-79
2022/09/22 03:54:39;;;;;;;15.32;12.38;;;;;;;7.31;100.00;100330.16;5092067;28;20028;-78
2022/09/22 03:57:04;;;;;;;16.80;13.25;;;;;;;7.29;100.00;100325.91;5091737;28;20019;-78
2022/09/22 03:59:30;;;;;;;16.30;12.05;;;;;;;7.25;100.00;100326.00;5091930;28;20035;-79
2022/09/22 04:01:55;;;;;;;15.20;13.27;;;;;;;7.23;100.00;100319.97;5091539;28;20016;-79
2022/09/22 04:04:21;;;;;;;16.35;13.10;;;;;;;7.31;100.00;100337.94;5091937;28;20067;-78
2022/09/22 04:06:46;;;;;;;20.40;13.30;;;;;;;7.15;100.00;100308.91;5091601;28;20036;-78
2022/09/22 04:09:11;;;;;;;19.42;14.43;;;;;;;7.19;100.00;100322.66;5091755;28;20070;-78
2022/09/22 04:11:37;;;;;;;16.48;14.00;;;;;;;7.24;100.00;100338.97;5091890;28;20019;-79
2022/09/22 04:14:03;;;;;;;20.38;14.90;;;;;;;7.20;100.00;100330.41;5091495;28;20042;-79
2022/09/22 04:16:29;;;;;;;18.23;15.10;;;;;;;7.17;100.00;100321.88;5091711;28;20051;-78
2022/09/22 04:18:54;;;;;;;20.48;15.25;;;;;;;7.17;100.00;100329.63;5091826;28;20054;-78
2022/09/22 04:21:20;;;;;;;20.45;14.75;;;;;;;7.16;100.00;100328.78;5091901;28;20024;-78
2022/09/22 04:23:45;;;;;;;19.00;14.73;;;;;;;7.11;100.00;100324.56;5092088;28;20032;-79
2022/09/22 04:26:10;;;;;;;18.23;14.25;;;;;;;7.10;100.00;100333.22;5091897;28;20063;-79
2022/09/22 04:28:36;;;;;;;22.05;17.52;;;;;;;7.10;100.00;100333.22;5093241;28;20461;-79
2022/09/22 04:31:01;;;;;;;24.15;21.38;;;;;;;7.09;100.00;100334.13;5095594;28;20364;-79
2022/09/22 04:33:27;;;;;;;23.92;20.15;;;;;;;7.06;100.00;100324.66;5095595;28;20024;-78
2022/09/22 04:35:52;;;;;;;25.25;18.25;;;;;;;7.07;100.00;100330.69;5095191;28;20099;-78
2022/09/22 04:38:18;;;;;;;18.90;16.80;;;;;;;7.06;100.00;100332.44;5095740;28;20185;-79
2022/09/22 04:40:44;;;;;;;22.75;18.00;;;;;;;7.02;100.00;100328.22;5095246;28;20525;-79
2022/09/22 04:43:10;;;;;;;22.67;17.67;;;;;;;7.06;100.00;100341.94;5095247;28;20487;-79
2022/09/22 04:45:35;;;;;;;22.48;17.95;;;;;;;7.02;100.00;100335.13;5095106;28;20024;-79
2022/09/22 04:48:01;;;;;;;25.52;19.25;;;;;;;7.03;100.00;100329.91;5095154;28;20027;-79
2022/09/22 04:50:27;;;;;;;27.60;20.38;;;;;;;7.08;100.00;100346.22;5094090;28;20028;-79
2022/09/22 04:52:54;;;;;;;26.38;20.25;;;;;;;7.05;100.00;100348.88;5094813;28;20024;-78
2022/09/22 04:55:21;;;;;;;26.23;19.40;;;;;;;7.07;100.00;100354.00;5094979;28;20062;-79
2022/09/22 04:57:52;;;;;;;23.88;19.38;;;;;;;7.05;100.00;100348.03;5094904;28;20016;-79
2022/09/22 05:00:18;;;;;;;30.30;20.50;;;;;;;7.04;100.00;100341.13;5094835;28;20131;-79
2022/09/22 05:02:43;;;;;;;27.08;20.70;;;;;;;7.10;100.00;100354.81;5094932;28;20012;-79
2022/09/22 05:05:09;;;;;;;24.27;20.00;;;;;;;7.08;100.00;100340.16;5094587;28;20024;-79
2022/09/22 05:07:35;;;;;;;27.05;21.88;;;;;;;7.07;100.00;100341.06;5094836;28;20457;-79
2022/09/22 05:10:01;;;;;;;28.80;22.27;;;;;;;7.18;100.00;100349.47;5094901;28;20441;-79
2022/09/22 05:12:27;;;;;;;30.83;22.77;;;;;;;7.23;100.00;100351.06;5094751;28;20027;-79
2022/09/22 05:14:53;;;;;;;29.48;23.48;;;;;;;7.31;100.00;100358.69;5094465;28;20078;-79
2022/09/22 05:17:19;;;;;;;31.15;24.13;;;;;;;7.42;100.00;100361.03;5094755;28;20051;-79
2022/09/22 05:19:45;;;;;;;31.27;24.45;;;;;;;7.47;100.00;100359.19;5094780;28;20028;-79
2022/09/22 05:22:11;;;;;;;31.48;23.92;;;;;;;7.55;100.00;100361.63;5094367;28;20472;-78
2022/09/22 05:24:36;;;;;;;34.97;24.55;;;;;;;7.57;100.00;100347.72;5094565;28;20055;-78
2022/09/22 05:27:01;;;;;;;31.38;23.90;;;;;;;7.66;100.00;100350.09;5094186;28;20023;-79
2022/09/22 05:29:27;;;;;;;34.70;25.52;;;;;;;7.81;100.00;100366.19;5094267;28;20024;-79
2022/09/22 05:31:52;;;;;;;32.72;25.08;;;;;;;7.89;100.00;100367.72;5094657;28;20016;-79
2022/09/22 05:34:17;;;;;;;35.13;24.90;;;;;;;8.02;100.00;100368.25;5094057;28;20020;-79
2022/09/22 05:36:43;;;;;;;35.50;25.20;;;;;;;8.05;100.00;100367.31;5094365;28;20453;-79
2022/09/22 05:39:08;;;;;;;38.72;27.40;;;;;;;7.98;100.00;100362.28;5094092;28;20452;-79
2022/09/22 05:41:34;;;;;;;41.25;29.23;;;;;;;8.01;100.00;100371.75;5094114;28;20357;-79
2022/09/22 05:43:59;;;;;;;37.30;28.13;;;;;;;8.03;100.00;100374.31;5094192;28;20373;-79
2022/09/22 05:46:24;;;;;;;40.15;30.50;;;;;;;8.03;100.00;100375.16;5094302;28;20027;-79
2022/09/22 05:48:50;;;;;;;35.35;24.70;;;;;;;8.00;100.00;100370.88;5094166;28;20110;-79
2022/09/22 05:51:15;;;;;;;36.78;25.90;;;;;;;8.12;100.00;100374.06;5093901;28;20051;-79
2022/09/22 05:53:40;;;;;;;31.90;22.88;;;;;;;8.17;100.00;100364.41;5093932;28;20372;-79
2022/09/22 05:56:06;;;;;;;32.55;22.95;;;;;;;8.28;100.00;100362.41;5093563;28;20032;-79
2022/09/22 05:58:31;;;;;;;33.53;23.77;;;;;;;8.36;100.00;100360.47;5093867;28;20024;-79
2022/09/22 06:00:57;;;;;;;35.45;24.27;;;;;;;8.63;100.00;100371.88;5094061;28;20024;-79
2022/09/22 06:03:22;;;;;;;33.50;23.02;;;;;;;8.88;100.00;100379.84;5093791;28;20373;-79
2022/09/22 06:05:47;;;;;;;31.23;23.02;;;;;;;9.12;100.00;100375.72;5093720;28;20465;-79
2022/09/22 06:08:13;;;;;;;27.15;20.65;;;;;;;9.40;100.00;100374.91;5093786;28;20017;-79
2022/09/22 06:10:38;;;;;;;26.15;19.83;;;;;;;9.61;100.00;100383.81;5094051;28;20412;-79
2022/09/22 06:13:09;;;;;;;27.63;20.38;;;;;;;9.67;100.00;100386.22;5093245;28;20016;-79
2022/09/22 06:15:35;;;;;;;26.67;19.83;;;;;;;9.65;100.00;100391.47;5093892;28;20415;-79
2022/09/22 06:18:07;;;;;;;27.65;20.52;;;;;;;9.80;100.00;100381.47;5093410;28;20020;-79
2022/09/22 06:20:36;;;;;;;30.85;21.17;;;;;;;10.11;100.00;100378.72;5093356;28;20035;-79
2022/09/22 06:23:02;;;;;;;26.63;19.10;;;;;;;10.42;100.00;100378.59;5093231;28;20024;-79
2022/09/22 06:25:28;;;;;;;26.48;19.48;;;;;;;10.78;100.00;100386.00;5091911;28;20024;-79
2022/09/22 06:28:03;;;;;;;25.35;18.73;;;;;;;11.07;100.00;100392.78;5093485;28;20077;-79
2022/09/22 06:30:30;;;;;;;31.48;19.80;;;;;;;11.47;100.00;100385.16;5093406;28;20469;-79
2022/09/22 06:32:56;;;;;;;27.80;20.95;;;;;;;12.07;100.00;100384.56;5093285;28;20031;-79
2022/09/22 06:35:21;;;;;;;25.30;18.52;;;;;;;13.23;100.00;100393.50;5092868;28;20032;-79
2022/09/22 06:37:55;;;;;;;35.10;27.83;;;;;;;14.15;93.97;100390.84;5093208;28;20020;-79
2022/09/22 06:40:23;;;;;;;34.28;29.25;;;;;;;14.17;89.92;100381.16;5092973;28;20470;-79
2022/09/22 06:42:48;;;;;;;28.85;23.15;;;;;;;14.17;89.13;100392.50;5093411;28;20121;-79
2022/09/22 06:45:15;;;;;;;25.25;20.92;;;;;;;14.30;87.90;100384.03;5092822;28;20099;-80
2022/09/22 06:47:41;;;;;;;22.55;17.38;;;;;;;14.58;85.94;100399.22;5093145;28;20020;-79
2022/09/22 06:50:08;;;;;;;32.83;25.80;;;;;;;14.71;85.01;100395.91;5092673;28;20515;-79
2022/09/22 06:52:35;;;;;;;55.63;41.70;;;;;;;14.81;84.06;100392.78;5092479;28;20491;-79
2022/09/22 06:55:01;;;;;;;25.20;21.83;;;;;;;15.09;82.91;100400.91;5092628;28;20019;-79
2022/09/22 06:57:28;;;;;;;24.50;18.10;;;;;;;15.11;81.55;100387.69;5093058;28;20023;-80
2022/09/22 06:59:54;;;;;;;17.75;14.27;;;;;;;15.32;80.96;100406.69;5092923;28;20020;-79
2022/09/22 07:02:20;;;;;;;16.85;12.93;;;;;;;15.54;80.61;100396.69;5092484;28;20528;-79
2022/09/22 07:04:47;;;;;;;17.20;13.40;;;;;;;16.10;78.96;100411.09;5092589;28;20024;-79
2022/09/22 07:07:12;;;;;;;13.73;11.60;;;;;;;16.39;77.96;100398.91;5092466;28;20435;-80
2022/09/22 07:09:37;;;;;;;21.40;13.10;;;;;;;16.58;75.72;100396.00;5091499;28;20020;-80
2022/09/22 07:12:05;;;;;;;15.65;12.82;;;;;;;17.57;73.76;100406.63;5092394;28;20488;-80
2022/09/22 07:14:31;;;;;;;14.98;12.85;;;;;;;20.40;66.87;100401.06;5092458;28;20020;-80
2022/09/22 07:16:56;;;;;;;15.30;12.18;;;;;;;22.95;59.87;100407.91;5092469;28;20375;-80
2022/09/22 07:19:22;;;;;;;11.88;9.93;;;;;;;25.00;54.64;100402.63;5092104;28;20095;-80
2022/09/22 07:21:47;;;;;;;13.48;11.45;;;;;;;25.45;52.10;100401.91;5092237;28;20024;-80
2022/09/22 07:24:13;;;;;;;11.63;9.30;;;;;;;25.70;52.58;100399.47;5092317;28;20035;-80
2022/09/22 07:26:39;;;;;;;11.77;10.05;;;;;;;27.81;48.28;100399.22;5092512;28;20039;-80
2022/09/22 07:29:10;;;;;;;11.60;10.50;;;;;;;29.15;44.18;100391.59;5092106;28;20457;-80
2022/09/22 07:31:35;;;;;;;8.85;7.53;;;;;;;28.82;43.28;100394.38;5092330;28;20024;-80
2022/09/22 07:34:01;;;;;;;7.68;6.93;;;;;;;28.13;43.82;100390.38;5092062;28;20030;-80
2022/09/22 07:36:29;;;;;;;8.98;7.88;;;;;;;28.83;43.75;100401.38;5091800;28;20047;-80
2022/09/22 07:38:56;;;;;;;8.77;7.88;;;;;;;29.54;41.59;100388.91;5092230;28;20350;-80
2022/09/22 07:41:27;;;;;;;5.10;4.60;;;;;;;29.66;40.57;100393.88;5092101;28;20353;-80
2022/09/22 07:43:55;;;;;;;16.23;13.93;;;;;;;29.24;39.85;100400.44;5092227;28;20086;-80
2022/09/22 07:46:20;;;;;;;7.03;6.32;;;;;;;26.82;43.28;100383.75;5091854;28;20020;-80
2022/09/22 07:48:46;;;;;;;5.35;4.82;;;;;;;24.15;46.89;100387.50;5092193;28;20020;-80
2022/09/22 07:51:19;;;;;;;5.47;4.45;;;;;;;22.11;50.84;100391.94;5091862;28;20028;-80
2022/09/22 07:54:01;;;;;;;6.35;4.93;;;;;;;20.93;54.42;100401.41;5091957;28;20016;-80
2022/09/22 07:56:27;;;;;;;6.20;5.40;;;;;;;19.88;56.35;100401.44;5091945;28;20397;-80
2022/09/22 07:58:53;;;;;;;6.85;4.55;;;;;;;18.84;58.51;100393.84;5091858;28;20020;-80
2022/09/22 08:01:21;;;;;;;7.85;6.93;;;;;;;17.99;61.93;100384.59;5091646;28;20410;-80
2022/09/22 08:03:47;;;;;;;6.35;4.65;;;;;;;17.58;63.61;100385.47;5093769;28;20028;-80
2022/09/22 08:06:15;;;;;;;5.88;4.00;;;;;;;17.33;64.36;100394.09;5095753;28;20047;-80
2022/09/22 08:08:46;;;;;;;4.93;4.05;;;;;;;16.79;64.97;100387.81;5096092;28;20086;-80
2022/09/22 08:11:16;;;;;;;5.28;4.30;;;;;;;16.59;66.91;100384.53;5095718;28;20020;-80
2022/09/22 08:13:45;;;;;;;5.47;4.78;;;;;;;16.64;67.88;100386.91;5095845;28;20457;-80
2022/09/22 08:16:11;;;;;;;3.60;3.17;;;;;;;16.53;67.83;100387.56;5095597;28;20031;-79
2022/09/22 08:18:38;;;;;;;5.13;4.05;;;;;;;16.23;68.17;100389.38;5095849;28;20020;-80
2022/09/22 08:21:04;;;;;;;5.40;3.92;;;;;;;15.79;69.29;100390.97;5095760;28;20031;-80
2022/09/22 08:23:30;;;;;;;5.25;4.65;;;;;;;15.64;70.81;100386.56;5095394;28;20077;-80
2022/09/22 08:26:01;;;;;;;4.15;2.80;;;;;;;15.63;70.50;100395.34;5095502;28;20020;-80
2022/09/22 08:28:26;;;;;;;4.53;3.20;;;;;;;15.54;70.83;100388.81;5093786;28;20496;-79
2022/09/22 08:30:51;;;;;;;3.60;3.20;;;;;;;15.47;70.28;100395.38;5094416;28;20028;-79
2022/09/22 08:33:17;;;;;;;8.80;6.25;;;;;;;15.27;70.04;100390.34;5095362;28;20020;-79
2022/09/22 08:35:57;;;;;;;4.15;2.70;;;;;;;15.03;70.35;100385.47;5095567;28;20031;-79
2022/09/22 08:38:24;;;;;;;6.53;4.00;;;;;;;14.92;70.82;100380.81;5095185;28;20028;-79
2022/09/22 08:41:17;;;;;;;3.92;3.20;;;;;;;14.86;70.67;100396.00;5095466;28;20028;-79
2022/09/22 08:44:02;;;;;;;4.13;3.60;;;;;;;14.68;71.30;100397.81;5095469;28;20020;-79
2022/09/22 08:46:40;;;;;;;5.47;3.00;;;;;;;14.51;71.39;100382.97;5094885;28;20040;-79
2022/09/22 08:51:54;;;;;;;3.90;3.50;;;;;;;14.32;72.15;100390.03;5095142;28;20417;-79
2022/09/22 08:54:24;;;;;;;3.70;3.13;;;;;;;14.35;72.94;100393.34;5095030;28;20088;-80
2022/09/22 08:57:04;;;;;;;7.70;5.30;;;;;;;14.28;72.63;100391.94;5095142;28;20030;-80
2022/09/22 08:59:37;;;;;;;4.07;2.67;;;;;;;14.28;72.69;100396.34;5094786;28;20024;-79
2022/09/22 09:02:20;;;;;;;3.65;2.70;;;;;;;14.19;73.27;100405.50;5095118;28;20440;-80
2022/09/22 09:05:18;;;;;;;4.97;3.00;;;;;;;14.06;73.66;100402.63;5094970;28;20423;-79
2022/09/22 09:08:01;;;;;;;3.30;2.65;;;;;;;14.11;74.14;100395.41;5052012;28;20091;-79
2022/09/22 09:10:50;;;;;;;4.18;3.10;;;;;;;14.18;74.05;100396.81;5052063;28;20033;-79
2022/09/22 09:13:30;;;;;;;3.80;2.53;;;;;;;14.13;72.39;100403.19;4972943;28;20085;-79
2022/09/22 09:16:16;;;;;;;5.07;4.38;;;;;;;14.17;73.46;100402.13;4973096;28;20039;-79
2022/09/22 09:18:49;;;;;;;4.15;3.60;;;;;;;14.15;73.57;100386.47;4953731;29;20473;-80
2022/09/22 09:21:14;;;;;;;4.82;2.97;;;;;;;14.20;74.13;100401.97;4953800;29;20032;-80
2022/09/22 09:23:51;;;;;;;4.55;3.05;;;;;;;14.13;74.81;100400.59;4953891;29;20078;-80
2022/09/22 09:26:19;;;;;;;2.97;2.65;;;;;;;14.06;74.34;100383.47;4953762;29;20019;-79
2022/09/22 09:28:59;;;;;;;2.53;2.33;;;;;;;14.12;75.13;100391.03;4953923;29;20031;-79
2022/09/22 09:31:33;;;;;;;3.00;2.70;;;;;;;14.29;75.47;100387.56;4953486;29;20038;-79
2022/09/22 09:34:01;;;;;;;5.72;3.80;;;;;;;14.46;75.71;100385.78;4953664;29;20062;-79
2022/09/22 09:36:32;;;;;;;4.25;2.47;;;;;;;14.58;74.33;100386.09;4953399;29;20440;-79
2022/09/22 09:39:08;;;;;;;8.27;4.30;;;;;;;14.52;73.20;100379.41;4953495;29;20085;-79
2022/09/22 09:41:35;;;;;;;4.07;3.13;;;;;;;14.69;73.40;100383.78;4953293;29;20416;-79
2022/09/22 09:44:02;;;;;;;4.47;2.67;;;;;;;14.66;72.27;100390.06;4962072;28;20038;-79
2022/09/22 09:46:49;;;;;;;4.13;3.22;;;;;;;14.58;72.83;100396.59;4972626;28;20546;-80
2022/09/22 09:49:16;;;;;;;3.75;2.67;;;;;;;14.49;71.97;100392.66;4977301;28;20512;-79
2022/09/22 09:51:45;;;;;;;3.92;2.40;;;;;;;14.28;71.39;100381.47;5031734;28;20371;-79
2022/09/22 09:54:13;;;;;;;2.13;1.92;;;;;;;14.26;71.99;100393.81;5031296;28;20064;-80
2022/09/22 09:57:07;;;;;;;3.85;1.85;;;;;;;14.22;71.10;100381.78;5085234;28;20711;-79
2022/09/22 10:02:26;;;;;;;3.38;2.20;;;;;;;14.17;70.67;100387.25;5093496;28;20066;-79
2022/09/22 10:04:56;;;;;;;5.00;2.00;;;;;;;14.25;71.76;100381.63;5094002;28;20028;-79
2022/09/22 10:07:29;;;;;;;3.58;2.20;;;;;;;14.35;72.59;100371.53;5093464;28;20036;-79
2022/09/22 10:09:55;;;;;;;3.33;2.30;;;;;;;14.48;72.31;100377.84;5093686;28;20044;-79
2022/09/22 10:12:29;;;;;;;4.00;2.85;;;;;;;14.51;71.84;100371.63;5093484;28;20197;-80
2022/09/22 10:15:00;;;;;;;5.95;3.22;;;;;;;14.77;72.41;100381.59;5093472;28;20016;-80
2022/09/22 10:17:43;;;;;;;4.18;2.00;;;;;;;14.88;71.23;100367.94;5093513;28;20034;-79
2022/09/22 10:20:16;;;;;;;2.28;1.98;;;;;;;14.88;68.98;100374.03;5093568;28;20099;-80
2022/09/22 10:22:43;;;;;;;2.58;1.85;;;;;;;14.87;67.97;100381.97;5093402;28;20034;-80
2022/09/22 10:25:21;;;;;;;2.13;1.80;;;;;;;14.77;68.56;100363.25;5093073;28;20046;-80
2022/09/22 10:28:13;;;;;;;3.75;2.42;;;;;;;14.83;69.47;100367.31;5093154;28;20372;-80
2022/09/22 10:30:39;;;;;;;2.42;1.80;;;;;;;14.87;68.54;100380.19;5093266;28;20016;-79
2022/09/22 10:33:20;;;;;;;2.25;1.63;;;;;;;14.89;67.26;100380.13;5093251;28;20028;-80
2022/09/22 10:35:46;;;;;;;;;;;;;;;14.88;66.67;100381.06;5093870;28;20020;-80
2022/09/22 10:38:25;;;;;;;1.95;1.75;;;;;;;14.86;67.54;100375.88;5093306;28;19904;-79
2022/09/22 10:41:03;;;;;;;2.83;1.93;;;;;;;14.87;67.39;100371.47;5091932;28;20114;-79
2022/09/22 10:43:38;;;;;;;1.80;1.70;;;;;;;14.62;66.80;100364.03;5093078;28;20300;-79
2022/09/22 10:46:09;;;;;;;2.35;1.88;;;;;;;14.53;67.65;100375.00;5097598;28;20349;-79
2022/09/22 10:48:41;;;;;;;2.78;1.80;;;;;;;14.44;68.09;100382.38;5108687;28;20825;-79
2022/09/22 10:51:31;;;;;;;4.28;2.00;;;;;;;14.49;68.33;100376.94;5112952;28;20026;-79
2022/09/22 10:54:12;;;;;;;3.67;2.13;;;;;;;14.73;67.88;100374.84;5112780;28;20027;-80
2022/09/22 10:56:48;;;;;;;2.53;1.80;;;;;;;15.05;68.64;100362.66;5112441;28;20027;-80
2022/09/22 10:59:53;;;;;;;1.50;1.40;;;;;;;15.34;67.03;100366.31;5112397;28;20027;-79
2022/09/22 11:02:51;;;;;;;1.80;1.70;;;;;;;15.35;64.71;100368.00;5056881;28;20029;-79
2022/09/22 11:14:21;;;;;;;3.25;2.33;;;;;;;15.02;66.17;100359.34;5069859;28;20063;-79
2022/09/22 11:17:07;;;;;;;3.65;1.98;;;;;;;14.98;66.82;100367.38;5069728;28;20036;-80
2022/09/22 11:19:39;;;;;;;1.98;1.50;;;;;;;14.88;66.30;100358.31;5069498;28;20040;-79
2022/09/22 11:22:29;;;;;;;5.00;1.98;;;;;;;14.78;66.66;100351.81;5069653;28;20047;-80
2022/09/22 11:24:57;;;;;;;1.38;1.05;;;;;;;14.74;64.22;100352.91;5069664;28;20430;-80
2022/09/22 11:27:44;;;;;;;2.58;1.30;;;;;;;14.64;64.58;100338.59;5052584;28;20035;-79
2022/09/22 11:30:21;;;;;;;2.40;1.30;;;;;;;14.59;63.93;100325.75;5069567;28;20036;-80
2022/09/22 11:33:31;;;;;;;2.88;1.45;;;;;;;14.80;65.52;100336.03;5069418;28;20187;-79
2022/09/22 11:36:05;;;;;;;1.70;1.60;;;;;;;14.92;64.70;100336.22;4997521;28;20038;-79
2022/09/22 11:39:02;;;;;;;2.15;1.55;;;;;;;15.03;65.66;100340.03;5009692;28;20021;-80
2022/09/22 11:41:40;;;;;;;1.42;1.33;;;;;;;15.11;66.10;100337.84;5009951;28;20506;-80
2022/09/22 11:44:12;;;;;;;6.25;1.40;;;;;;;15.14;66.20;100335.91;5009911;28;20049;-79
2022/09/22 11:46:54;;;;;;;2.70;1.25;;;;;;;15.01;65.08;100327.00;5009435;28;20030;-79
2022/09/22 11:49:51;;;;;;;2.25;1.17;;;;;;;14.83;64.53;100317.50;5009594;28;20033;-80